sensor_id;sensor_type;location;lat;lon;timestamp;pressure;altitude;pressure_sealevel;temperature;humidity
52441;BME280;39611;46.062;8.950;2023-04-26T00:01:03;96084.06;;;12.61;30.08
52441;BME280;39611;46.062;8.950;2023-04-26T00:03:30;96097.31;;;12.61;30.78
52441;BME280;39611;46.062;8.950;2023-04-26T00:05:59;96085.81;;;12.52;31.91
52441;BME280;39611;46.062;8.950;2023-04-26T00:08:30;96099.47;;;12.45;32.90
52441;BME280;39611;46.062;8.950;2023-04-26T00:10:57;96100.53;;;12.44;33.37
52441;BME280;39611;46.062;8.950;2023-04-26T00:13:23;96098.06;;;12.34;33.11
52441;BME280;39611;46.062;8.950;2023-04-26T00:15:49;96094.94;;;12.32;33.83
52441;BME280;39611;46.062;8.950;2023-04-26T00:18:16;96096.19;;;12.21;34.93
52441;BME280;39611;46.062;8.950;2023-04-26T00:20:43;96094.13;;;12.18;34.66
52441;BME280;39611;46.062;8.950;2023-04-26T00:23:09;96095.78;;;12.14;34.33
52441;BME280;39611;46.062;8.950;2023-04-26T00:25:36;96100.69;;;12.07;34.83
52441;BME280;39611;46.062;8.950;2023-04-26T00:28:03;96101.91;;;11.95;34.18
52441;BME280;39611;46.062;8.950;2023-04-26T00:30:29;96108.88;;;11.91;34.98
52441;BME280;39611;46.062;8.950;2023-04-26T00:32:55;96106.16;;;11.96;34.96
52441;BME280;39611;46.062;8.950;2023-04-26T00:35:22;96093.59;;;12.02;34.23
52441;BME280;39611;46.062;8.950;2023-04-26T00:37:48;96105.75;;;11.89;35.09
52441;BME280;39611;46.062;8.950;2023-04-26T00:40:15;96104.97;;;11.89;34.94
52441;BME280;39611;46.062;8.950;2023-04-26T00:42:42;96113.69;;;11.89;35.06
52441;BME280;39611;46.062;8.950;2023-04-26T00:45:08;96106.44;;;11.76;33.16
52441;BME280;39611;46.062;8.950;2023-04-26T00:47:35;96099.78;;;11.78;34.20
52441;BME280;39611;46.062;8.950;2023-04-26T00:50:01;96115.31;;;11.85;34.18
52441;BME280;39611;46.062;8.950;2023-04-26T00:52:30;96112.19;;;11.83;34.58
52441;BME280;39611;46.062;8.950;2023-04-26T00:54:57;96119.03;;;11.84;34.83
52441;BME280;39611;46.062;8.950;2023-04-26T00:57:23;96119.81;;;11.85;34.42
52441;BME280;39611;46.062;8.950;2023-04-26T00:59:51;96129.09;;;11.87;34.49
52441;BME280;39611;46.062;8.950;2023-04-26T01:02:17;96126.78;;;11.80;34.87
52441;BME280;39611;46.062;8.950;2023-04-26T01:04:44;96123.31;;;11.80;34.30
52441;BME280;39611;46.062;8.950;2023-04-26T01:07:10;96122.22;;;11.86;34.08
52441;BME280;39611;46.062;8.950;2023-04-26T01:09:37;96114.53;;;11.85;34.33
52441;BME280;39611;46.062;8.950;2023-04-26T01:12:04;96123.19;;;11.90;34.21
52441;BME280;39611;46.062;8.950;2023-04-26T01:14:32;96118.47;;;11.87;34.48
52441;BME280;39611;46.062;8.950;2023-04-26T01:17:02;96125.38;;;11.88;34.63
52441;BME280;39611;46.062;8.950;2023-04-26T01:19:29;96121.97;;;11.82;34.70
52441;BME280;39611;46.062;8.950;2023-04-26T01:21:55;96119.19;;;11.74;34.36
52441;BME280;39611;46.062;8.950;2023-04-26T01:24:22;96120.69;;;11.80;32.81
52441;BME280;39611;46.062;8.950;2023-04-26T01:26:48;96116.97;;;11.81;33.46
52441;BME280;39611;46.062;8.950;2023-04-26T01:29:16;96116.81;;;11.72;33.67
52441;BME280;39611;46.062;8.950;2023-04-26T01:31:44;96116.75;;;11.77;32.69
52441;BME280;39611;46.062;8.950;2023-04-26T01:34:11;96121.84;;;11.74;34.13
52441;BME280;39611;46.062;8.950;2023-04-26T01:36:37;96125.78;;;11.76;34.25
52441;BME280;39611;46.062;8.950;2023-04-26T01:39:04;96127.56;;;11.81;33.79
52441;BME280;39611;46.062;8.950;2023-04-26T01:41:30;96128.63;;;11.80;34.04
52441;BME280;39611;46.062;8.950;2023-04-26T01:43:58;96128.78;;;11.70;34.41
52441;BME280;39611;46.062;8.950;2023-04-26T01:46:25;96127.41;;;11.72;34.29
52441;BME280;39611;46.062;8.950;2023-04-26T01:48:52;96132.94;;;11.76;34.01
52441;BME280;39611;46.062;8.950;2023-04-26T01:51:19;96139.38;;;11.70;34.25
52441;BME280;39611;46.062;8.950;2023-04-26T01:53:45;96128.78;;;11.70;34.55
52441;BME280;39611;46.062;8.950;2023-04-26T01:56:12;96134.03;;;11.56;33.98
52441;BME280;39611;46.062;8.950;2023-04-26T01:58:38;96132.53;;;11.69;34.24
52441;BME280;39611;46.062;8.950;2023-04-26T02:01:06;96134.59;;;11.72;33.67
52441;BME280;39611;46.062;8.950;2023-04-26T02:03:34;96142.53;;;11.72;33.92
52441;BME280;39611;46.062;8.950;2023-04-26T02:06:01;96139.81;;;11.77;33.27
52441;BME280;39611;46.062;8.950;2023-04-26T02:08:28;96135.09;;;11.74;34.06
52441;BME280;39611;46.062;8.950;2023-04-26T02:10:55;96138.31;;;11.71;33.75
52441;BME280;39611;46.062;8.950;2023-04-26T02:13:21;96134.09;;;11.70;34.46
52441;BME280;39611;46.062;8.950;2023-04-26T02:15:49;96139.44;;;11.65;34.79
52441;BME280;39611;46.062;8.950;2023-04-26T02:18:16;96144.28;;;11.63;34.38
52441;BME280;39611;46.062;8.950;2023-04-26T02:20:43;96141.91;;;11.61;34.93
52441;BME280;39611;46.062;8.950;2023-04-26T02:23:11;96133.31;;;11.50;35.24
52441;BME280;39611;46.062;8.950;2023-04-26T02:25:38;96135.75;;;11.47;35.53
52441;BME280;39611;46.062;8.950;2023-04-26T02:28:05;96134.41;;;11.49;35.39
52441;BME280;39611;46.062;8.950;2023-04-26T02:30:31;96145.13;;;11.39;35.39
52441;BME280;39611;46.062;8.950;2023-04-26T02:32:58;96143.72;;;11.47;35.31
52441;BME280;39611;46.062;8.950;2023-04-26T02:35:24;96140.25;;;11.46;35.75
52441;BME280;39611;46.062;8.950;2023-04-26T02:37:51;96144.31;;;11.38;35.92
52441;BME280;39611;46.062;8.950;2023-04-26T02:40:18;96139.31;;;11.37;36.23
52441;BME280;39611;46.062;8.950;2023-04-26T02:42:45;96144.69;;;11.32;35.99
52441;BME280;39611;46.062;8.950;2023-04-26T02:45:12;96150.97;;;11.36;35.64
52441;BME280;39611;46.062;8.950;2023-04-26T02:47:38;96139.84;;;11.39;35.45
52441;BME280;39611;46.062;8.950;2023-04-26T02:50:06;96140.63;;;11.40;35.07
52441;BME280;39611;46.062;8.950;2023-04-26T02:52:33;96137.97;;;11.40;35.17
52441;BME280;39611;46.062;8.950;2023-04-26T02:55:01;96141.91;;;11.42;34.56
52441;BME280;39611;46.062;8.950;2023-04-26T02:57:28;96135.25;;;11.45;34.21
52441;BME280;39611;46.062;8.950;2023-04-26T02:59:54;96134.16;;;11.46;33.94
52441;BME280;39611;46.062;8.950;2023-04-26T03:02:20;96136.53;;;11.47;34.53
52441;BME280;39611;46.062;8.950;2023-04-26T03:04:47;96141.59;;;11.44;34.33
52441;BME280;39611;46.062;8.950;2023-04-26T03:07:14;96131.81;;;11.44;34.35
52441;BME280;39611;46.062;8.950;2023-04-26T03:09:40;96137.13;;;11.44;34.88
52441;BME280;39611;46.062;8.950;2023-04-26T03:12:07;96134.53;;;11.39;35.23
52441;BME280;39611;46.062;8.950;2023-04-26T03:14:34;96129.78;;;11.36;34.65
52441;BME280;39611;46.062;8.950;2023-04-26T03:17:01;96135.09;;;11.36;34.48
52441;BME280;39611;46.062;8.950;2023-04-26T03:19:28;96142.56;;;11.34;34.97
52441;BME280;39611;46.062;8.950;2023-04-26T03:21:54;96147.28;;;11.37;34.63
52441;BME280;39611;46.062;8.950;2023-04-26T03:24:21;96139.84;;;11.39;34.91
52441;BME280;39611;46.062;8.950;2023-04-26T03:26:48;96144.63;;;11.37;34.24
52441;BME280;39611;46.062;8.950;2023-04-26T03:29:15;96142.56;;;11.34;34.37
52441;BME280;39611;46.062;8.950;2023-04-26T03:31:41;96142.47;;;11.39;34.39
52441;BME280;39611;46.062;8.950;2023-04-26T03:34:08;96140.97;;;11.33;34.77
52441;BME280;39611;46.062;8.950;2023-04-26T03:36:34;96153.69;;;11.31;34.75
52441;BME280;39611;46.062;8.950;2023-04-26T03:39:01;96150.00;;;11.32;34.53
52441;BME280;39611;46.062;8.950;2023-04-26T03:41:27;96150.97;;;11.36;34.32
52441;BME280;39611;46.062;8.950;2023-04-26T03:43:53;96148.13;;;11.32;34.61
52441;BME280;39611;46.062;8.950;2023-04-26T03:46:20;96145.75;;;11.31;33.95
52441;BME280;39611;46.062;8.950;2023-04-26T03:48:46;96152.63;;;11.32;34.19
52441;BME280;39611;46.062;8.950;2023-04-26T03:51:12;96145.47;;;11.32;34.20
52441;BME280;39611;46.062;8.950;2023-04-26T03:53:39;96154.06;;;11.24;34.15
52441;BME280;39611;46.062;8.950;2023-04-26T03:56:06;96154.63;;;11.21;34.72
52441;BME280;39611;46.062;8.950;2023-04-26T03:58:32;96157.22;;;11.26;35.02
52441;BME280;39611;46.062;8.950;2023-04-26T04:00:59;96153.84;;;11.21;35.70
52441;BME280;39611;46.062;8.950;2023-04-26T04:03:26;96157.53;;;11.20;35.13
52441;BME280;39611;46.062;8.950;2023-04-26T04:05:53;96157.75;;;11.23;34.31
52441;BME280;39611;46.062;8.950;2023-04-26T04:08:19;96157.53;;;11.20;34.87
52441;BME280;39611;46.062;8.950;2023-04-26T04:10:45;96160.13;;;11.25;34.51
52441;BME280;39611;46.062;8.950;2023-04-26T04:13:12;96157.22;;;11.26;35.04
52441;BME280;39611;46.062;8.950;2023-04-26T04:15:39;96161.69;;;11.26;34.75
52441;BME280;39611;46.062;8.950;2023-04-26T04:18:05;96162.28;;;11.23;34.73
52441;BME280;39611;46.062;8.950;2023-04-26T04:20:32;96161.84;;;11.15;34.20
52441;BME280;39611;46.062;8.950;2023-04-26T04:22:58;96170.06;;;11.14;34.02
52441;BME280;39611;46.062;8.950;2023-04-26T04:25:25;96171.88;;;11.19;34.19
52441;BME280;39611;46.062;8.950;2023-04-26T04:27:51;96178.59;;;11.30;33.40
52441;BME280;39611;46.062;8.950;2023-04-26T04:30:18;96171.75;;;11.29;33.76
52441;BME280;39611;46.062;8.950;2023-04-26T04:32:45;96170.66;;;11.30;34.15
52441;BME280;39611;46.062;8.950;2023-04-26T04:35:12;96166.94;;;11.31;34.32
52441;BME280;39611;46.062;8.950;2023-04-26T04:37:38;96172.28;;;11.26;34.09
52441;BME280;39611;46.062;8.950;2023-04-26T04:40:05;96173.88;;;11.27;34.18
52441;BME280;39611;46.062;8.950;2023-04-26T04:42:37;96166.00;;;11.22;34.21
52441;BME280;39611;46.062;8.950;2023-04-26T04:45:03;96181.09;;;11.21;34.18
52441;BME280;39611;46.062;8.950;2023-04-26T04:47:30;96180.81;;;11.23;34.09
52441;BME280;39611;46.062;8.950;2023-04-26T04:49:56;96186.09;;;11.23;34.33
52441;BME280;39611;46.062;8.950;2023-04-26T04:52:24;96181.88;;;11.22;34.36
52441;BME280;39611;46.062;8.950;2023-04-26T04:54:51;96184.53;;;11.22;34.29
52441;BME280;39611;46.062;8.950;2023-04-26T04:57:17;96194.03;;;11.23;34.66
52441;BME280;39611;46.062;8.950;2023-04-26T04:59:44;96188.75;;;11.23;34.38
52441;BME280;39611;46.062;8.950;2023-04-26T05:02:10;96190.22;;;11.10;34.62
52441;BME280;39611;46.062;8.950;2023-04-26T05:04:37;96183.09;;;11.10;34.62
52441;BME280;39611;46.062;8.950;2023-04-26T05:07:04;96195.69;;;11.19;32.76
52441;BME280;39611;46.062;8.950;2023-04-26T05:09:31;96188.31;;;11.15;34.08
52441;BME280;39611;46.062;8.950;2023-04-26T05:11:58;96206.63;;;11.12;34.65
52441;BME280;39611;46.062;8.950;2023-04-26T05:14:24;96208.47;;;11.11;34.88
52441;BME280;39611;46.062;8.950;2023-04-26T05:16:50;96212.16;;;11.15;34.27
52441;BME280;39611;46.062;8.950;2023-04-26T05:19:17;96209.44;;;11.21;34.65
52441;BME280;39611;46.062;8.950;2023-04-26T05:21:43;96200.03;;;11.09;35.54
52441;BME280;39611;46.062;8.950;2023-04-26T05:24:10;96217.00;;;11.08;34.52
52441;BME280;39611;46.062;8.950;2023-04-26T05:26:36;96207.63;;;11.16;34.35
52441;BME280;39611;46.062;8.950;2023-04-26T05:29:03;96206.56;;;11.17;35.20
52441;BME280;39611;46.062;8.950;2023-04-26T05:31:29;96205.31;;;11.09;35.62
52441;BME280;39611;46.062;8.950;2023-04-26T05:33:55;96209.06;;;11.08;35.28
52441;BME280;39611;46.062;8.950;2023-04-26T05:36:22;96220.16;;;11.10;35.16
52441;BME280;39611;46.062;8.950;2023-04-26T05:38:48;96205.88;;;11.06;34.56
52441;BME280;39611;46.062;8.950;2023-04-26T05:41:15;96216.56;;;11.20;33.67
52441;BME280;39611;46.062;8.950;2023-04-26T05:43:41;96212.16;;;11.15;34.65
52441;BME280;39611;46.062;8.950;2023-04-26T05:46:08;96206.34;;;11.13;34.64
52441;BME280;39611;46.062;8.950;2023-04-26T05:48:35;96222.69;;;11.21;35.11
52441;BME280;39611;46.062;8.950;2023-04-26T05:51:01;96221.53;;;11.27;34.94
52441;BME280;39611;46.062;8.950;2023-04-26T05:53:28;96237.38;;;11.32;35.02
52441;BME280;39611;46.062;8.950;2023-04-26T05:55:54;96228.28;;;11.38;34.45
52441;BME280;39611;46.062;8.950;2023-04-26T05:58:20;96234.25;;;11.49;35.01
52441;BME280;39611;46.062;8.950;2023-04-26T06:00:47;96232.72;;;11.86;34.62
52441;BME280;39611;46.062;8.950;2023-04-26T06:03:13;96231.13;;;12.55;32.75
52441;BME280;39611;46.062;8.950;2023-04-26T06:05:40;96227.22;;;13.41;31.33
52441;BME280;39611;46.062;8.950;2023-04-26T06:08:08;96230.53;;;14.33;30.33
52441;BME280;39611;46.062;8.950;2023-04-26T06:10:34;96241.75;;;15.37;29.03
52441;BME280;39611;46.062;8.950;2023-04-26T06:13:01;96231.09;;;16.12;27.94
52441;BME280;39611;46.062;8.950;2023-04-26T06:15:28;96238.78;;;17.04;26.14
52441;BME280;39611;46.062;8.950;2023-04-26T06:17:54;96230.94;;;17.46;25.01
52441;BME280;39611;46.062;8.950;2023-04-26T06:20:21;96239.38;;;17.48;26.17
52441;BME280;39611;46.062;8.950;2023-04-26T06:22:47;96228.91;;;17.64;25.68
52441;BME280;39611;46.062;8.950;2023-04-26T06:25:14;96240.00;;;17.83;24.27
52441;BME280;39611;46.062;8.950;2023-04-26T06:27:40;96227.75;;;18.03;24.96
52441;BME280;39611;46.062;8.950;2023-04-26T06:30:07;96229.25;;;18.13;25.48
52441;BME280;39611;46.062;8.950;2023-04-26T06:32:34;96239.63;;;18.15;25.71
52441;BME280;39611;46.062;8.950;2023-04-26T06:35:01;96233.09;;;18.24;24.01
52441;BME280;39611;46.062;8.950;2023-04-26T06:37:28;96224.88;;;18.29;24.08
52441;BME280;39611;46.062;8.950;2023-04-26T06:39:54;96221.22;;;17.92;25.12
52441;BME280;39611;46.062;8.950;2023-04-26T06:42:21;96223.72;;;17.67;25.92
52441;BME280;39611;46.062;8.950;2023-04-26T06:44:47;96218.72;;;17.28;27.27
52441;BME280;39611;46.062;8.950;2023-04-26T06:47:14;96233.84;;;17.23;26.34
52441;BME280;39611;46.062;8.950;2023-04-26T06:49:40;96234.69;;;17.07;27.39
52441;BME280;39611;46.062;8.950;2023-04-26T06:52:07;96240.94;;;16.81;27.82
52441;BME280;39611;46.062;8.950;2023-04-26T06:54:35;96242.00;;;16.71;26.07
52441;BME280;39611;46.062;8.950;2023-04-26T06:57:15;96243.16;;;16.53;26.71
52441;BME280;39611;46.062;8.950;2023-04-26T06:59:41;96245.03;;;16.44;27.06
52441;BME280;39611;46.062;8.950;2023-04-26T07:02:08;96252.13;;;16.22;28.14
52441;BME280;39611;46.062;8.950;2023-04-26T07:04:34;96246.31;;;16.20;26.38
52441;BME280;39611;46.062;8.950;2023-04-26T07:07:02;96237.03;;;16.17;26.89
52441;BME280;39611;46.062;8.950;2023-04-26T07:09:28;96246.75;;;16.13;27.65
52441;BME280;39611;46.062;8.950;2023-04-26T07:11:55;96252.59;;;16.07;28.72
52441;BME280;39611;46.062;8.950;2023-04-26T07:14:21;96250.84;;;16.02;27.12
52441;BME280;39611;46.062;8.950;2023-04-26T07:16:48;96252.88;;;16.05;27.83
52441;BME280;39611;46.062;8.950;2023-04-26T07:19:15;96247.88;;;16.21;26.91
52441;BME280;39611;46.062;8.950;2023-04-26T07:21:41;96247.41;;;16.10;26.73
52441;BME280;39611;46.062;8.950;2023-04-26T07:24:08;96241.44;;;16.05;27.61
52441;BME280;39611;46.062;8.950;2023-04-26T07:26:34;96247.72;;;16.09;26.89
52441;BME280;39611;46.062;8.950;2023-04-26T07:29:02;96251.63;;;16.20;26.46
52441;BME280;39611;46.062;8.950;2023-04-26T07:31:30;96236.41;;;16.21;25.70
52441;BME280;39611;46.062;8.950;2023-04-26T07:33:57;96237.84;;;16.09;26.55
52441;BME280;39611;46.062;8.950;2023-04-26T07:36:24;96236.88;;;16.05;25.81
52441;BME280;39611;46.062;8.950;2023-04-26T07:38:50;96240.03;;;16.07;26.56
52441;BME280;39611;46.062;8.950;2023-04-26T07:41:17;96239.41;;;16.02;27.84
52441;BME280;39611;46.062;8.950;2023-04-26T07:43:43;96235.78;;;16.15;26.76
52441;BME280;39611;46.062;8.950;2023-04-26T07:46:09;96240.19;;;16.20;25.81
52441;BME280;39611;46.062;8.950;2023-04-26T07:48:36;96233.13;;;16.32;26.41
52441;BME280;39611;46.062;8.950;2023-04-26T07:51:06;96233.91;;;16.33;25.58
52441;BME280;39611;46.062;8.950;2023-04-26T07:53:33;96236.88;;;16.31;25.29
52441;BME280;39611;46.062;8.950;2023-04-26T07:56:02;96235.78;;;16.32;25.24
52441;BME280;39611;46.062;8.950;2023-04-26T07:58:29;96235.94;;;16.27;25.96
52441;BME280;39611;46.062;8.950;2023-04-26T08:00:58;96243.47;;;16.34;26.53
52441;BME280;39611;46.062;8.950;2023-04-26T08:03:25;96237.84;;;16.27;26.16
52441;BME280;39611;46.062;8.950;2023-04-26T08:05:55;96237.34;;;16.07;24.80
52441;BME280;39611;46.062;8.950;2023-04-26T08:08:22;96237.03;;;16.00;25.16
52441;BME280;39611;46.062;8.950;2023-04-26T08:10:48;96242.38;;;16.00;25.62
52441;BME280;39611;46.062;8.950;2023-04-26T08:13:14;96243.78;;;15.98;26.32
52441;BME280;39611;46.062;8.950;2023-04-26T08:15:41;96239.06;;;15.94;25.72
52441;BME280;39611;46.062;8.950;2023-04-26T08:18:07;96229.66;;;15.88;26.02
52441;BME280;39611;46.062;8.950;2023-04-26T08:20:34;96236.72;;;15.93;25.72
52441;BME280;39611;46.062;8.950;2023-04-26T08:23:00;96235.63;;;15.94;27.82
52441;BME280;39611;46.062;8.950;2023-04-26T08:25:26;96238.75;;;16.05;26.98
52441;BME280;39611;46.062;8.950;2023-04-26T08:27:53;96235.78;;;15.98;25.20
52441;BME280;39611;46.062;8.950;2023-04-26T08:30:20;96239.06;;;15.86;25.80
52441;BME280;39611;46.062;8.950;2023-04-26T08:32:47;96237.63;;;15.80;25.46
52441;BME280;39611;46.062;8.950;2023-04-26T08:35:13;96245.34;;;15.81;25.44
52441;BME280;39611;46.062;8.950;2023-04-26T08:37:40;96239.84;;;15.78;25.57
52441;BME280;39611;46.062;8.950;2023-04-26T08:40:07;96236.56;;;15.72;26.09
52441;BME280;39611;46.062;8.950;2023-04-26T08:42:39;96239.66;;;15.74;25.80
52441;BME280;39611;46.062;8.950;2023-04-26T08:45:07;96238.09;;;15.73;24.83
52441;BME280;39611;46.062;8.950;2023-04-26T08:47:42;96233.56;;;15.73;24.99
52441;BME280;39611;46.062;8.950;2023-04-26T08:50:13;96228.84;;;15.79;26.37
52441;BME280;39611;46.062;8.950;2023-04-26T08:52:41;96229.19;;;15.78;24.96
52441;BME280;39611;46.062;8.950;2023-04-26T08:55:08;96236.22;;;15.82;26.49
52441;BME280;39611;46.062;8.950;2023-04-26T08:57:35;96245.66;;;15.88;28.69
52441;BME280;39611;46.062;8.950;2023-04-26T09:00:05;96233.25;;;15.84;27.69
52441;BME280;39611;46.062;8.950;2023-04-26T09:02:35;96239.41;;;15.93;29.42
52441;BME280;39611;46.062;8.950;2023-04-26T09:05:02;96241.25;;;15.92;30.76
52441;BME280;39611;46.062;8.950;2023-04-26T09:07:31;96242.84;;;15.93;30.73
52441;BME280;39611;46.062;8.950;2023-04-26T09:09:59;96247.69;;;16.00;31.32
52441;BME280;39611;46.062;8.950;2023-04-26T09:12:26;96244.72;;;16.02;30.89
52441;BME280;39611;46.062;8.950;2023-04-26T09:14:52;96248.66;;;16.04;30.04
52441;BME280;39611;46.062;8.950;2023-04-26T09:17:30;96252.28;;;16.17;28.94
52441;BME280;39611;46.062;8.950;2023-04-26T09:19:59;96245.34;;;16.16;27.43
52441;BME280;39611;46.062;8.950;2023-04-26T09:22:30;96250.41;;;16.09;26.86
52441;BME280;39611;46.062;8.950;2023-04-26T09:24:57;96252.28;;;16.08;27.26
52441;BME280;39611;46.062;8.950;2023-04-26T09:27:37;96239.09;;;16.12;27.21
52441;BME280;39611;46.062;8.950;2023-04-26T09:30:13;96244.91;;;16.14;27.79
52441;BME280;39611;46.062;8.950;2023-04-26T09:37:59;96239.69;;;16.26;26.73
52441;BME280;39611;46.062;8.950;2023-04-26T09:40:39;96233.75;;;16.29;26.97
52441;BME280;39611;46.062;8.950;2023-04-26T09:48:16;96235.28;;;16.39;26.70
52441;BME280;39611;46.062;8.950;2023-04-26T09:50:44;96236.72;;;16.36;25.01
52441;BME280;39611;46.062;8.950;2023-04-26T09:53:36;96227.78;;;16.32;24.41
52441;BME280;39611;46.062;8.950;2023-04-26T09:56:11;96232.19;;;16.37;25.36
52441;BME280;39611;46.062;8.950;2023-04-26T09:58:55;96226.81;;;16.46;28.82
52441;BME280;39611;46.062;8.950;2023-04-26T10:01:27;96224.44;;;16.44;29.13
52441;BME280;39611;46.062;8.950;2023-04-26T10:04:00;96218.16;;;16.49;26.91
52441;BME280;39611;46.062;8.950;2023-04-26T10:06:27;96224.63;;;16.48;29.49
52441;BME280;39611;46.062;8.950;2023-04-26T10:08:53;96215.94;;;16.59;26.19
52441;BME280;39611;46.062;8.950;2023-04-26T10:11:21;96226.03;;;16.54;25.63
52441;BME280;39611;46.062;8.950;2023-04-26T10:13:49;96228.22;;;16.60;26.09
52441;BME280;39611;46.062;8.950;2023-04-26T10:16:16;96220.81;;;16.57;28.18
52441;BME280;39611;46.062;8.950;2023-04-26T10:18:44;96218.94;;;16.58;25.64
52441;BME280;39611;46.062;8.950;2023-04-26T10:21:15;96207.47;;;16.66;26.50
52441;BME280;39611;46.062;8.950;2023-04-26T10:23:46;96206.69;;;16.66;27.90
52441;BME280;39611;46.062;8.950;2023-04-26T10:26:47;96198.50;;;16.62;28.76
52441;BME280;39611;46.062;8.950;2023-04-26T10:32:20;96195.97;;;16.74;28.71
52441;BME280;39611;46.062;8.950;2023-04-26T10:35:09;96194.72;;;16.80;28.17
52441;BME280;39611;46.062;8.950;2023-04-26T10:40:32;96186.06;;;16.75;23.82
52441;BME280;39611;46.062;8.950;2023-04-26T10:43:27;96194.56;;;16.77;25.64
52441;BME280;39611;46.062;8.950;2023-04-26T10:45:54;96192.38;;;16.79;26.70
52441;BME280;39611;46.062;8.950;2023-04-26T10:48:29;96186.53;;;16.77;26.73
52441;BME280;39611;46.062;8.950;2023-04-26T10:59:18;96172.63;;;17.01;23.69
52441;BME280;39611;46.062;8.950;2023-04-26T11:02:14;96180.53;;;16.97;22.07
52441;BME280;39611;46.062;8.950;2023-04-26T11:04:50;96166.16;;;17.11;21.49
52441;BME280;39611;46.062;8.950;2023-04-26T11:07:35;96170.44;;;17.03;22.41
52441;BME280;39611;46.062;8.950;2023-04-26T11:10:07;96166.69;;;16.95;21.64
52441;BME280;39611;46.062;8.950;2023-04-26T11:12:35;96159.69;;;16.82;22.78
52441;BME280;39611;46.062;8.950;2023-04-26T11:15:01;96155.75;;;16.79;25.22
52441;BME280;39611;46.062;8.950;2023-04-26T11:17:35;96158.25;;;16.85;23.56
52441;BME280;39611;46.062;8.950;2023-04-26T11:20:07;96147.22;;;16.95;23.56
52441;BME280;39611;46.062;8.950;2023-04-26T11:22:38;96148.69;;;17.13;23.72
52441;BME280;39611;46.062;8.950;2023-04-26T11:25:05;96147.44;;;17.11;27.77
52441;BME280;39611;46.062;8.950;2023-04-26T11:27:31;96147.84;;;17.21;26.00
52441;BME280;39611;46.062;8.950;2023-04-26T11:30:02;96138.94;;;17.17;27.11
52441;BME280;39611;46.062;8.950;2023-04-26T11:32:29;96146.75;;;17.22;28.75
52441;BME280;39611;46.062;8.950;2023-04-26T11:34:59;96138.72;;;17.22;26.61
52441;BME280;39611;46.062;8.950;2023-04-26T11:37:26;96136.91;;;17.35;24.38
52441;BME280;39611;46.062;8.950;2023-04-26T11:39:53;96136.84;;;17.23;25.86
52441;BME280;39611;46.062;8.950;2023-04-26T11:42:24;96128.25;;;17.17;25.64
52441;BME280;39611;46.062;8.950;2023-04-26T11:44:51;96132.16;;;17.20;28.01
52441;BME280;39611;46.062;8.950;2023-04-26T11:47:18;96129.69;;;17.15;26.96
52441;BME280;39611;46.062;8.950;2023-04-26T11:49:45;96126.81;;;17.20;26.85
52441;BME280;39611;46.062;8.950;2023-04-26T11:52:12;96130.47;;;17.36;24.58
52441;BME280;39611;46.062;8.950;2023-04-26T11:54:39;96126.69;;;17.37;24.03
52441;BME280;39611;46.062;8.950;2023-04-26T11:57:12;96126.41;;;17.30;27.33
52441;BME280;39611;46.062;8.950;2023-04-26T11:59:42;96125.97;;;17.28;28.62
52441;BME280;39611;46.062;8.950;2023-04-26T12:02:09;96124.59;;;17.22;28.19
52441;BME280;39611;46.062;8.950;2023-04-26T12:04:36;96116.13;;;17.20;29.81
52441;BME280;39611;46.062;8.950;2023-04-26T12:07:03;96127.72;;;17.24;26.97
52441;BME280;39611;46.062;8.950;2023-04-26T12:09:30;96122.66;;;17.31;27.58
52441;BME280;39611;46.062;8.950;2023-04-26T12:12:01;96118.84;;;17.32;28.97
52441;BME280;39611;46.062;8.950;2023-04-26T12:14:36;96114.47;;;17.28;28.60
52441;BME280;39611;46.062;8.950;2023-04-26T12:17:04;96116.06;;;17.29;27.08
52441;BME280;39611;46.062;8.950;2023-04-26T12:19:36;96112.63;;;17.28;26.67
52441;BME280;39611;46.062;8.950;2023-04-26T12:22:06;96116.53;;;17.31;27.81
52441;BME280;39611;46.062;8.950;2023-04-26T12:24:34;96115.88;;;17.34;29.33
52441;BME280;39611;46.062;8.950;2023-04-26T12:27:04;96122.59;;;17.40;27.90
52441;BME280;39611;46.062;8.950;2023-04-26T12:29:32;96112.53;;;17.37;28.08
52441;BME280;39611;46.062;8.950;2023-04-26T12:31:59;96115.81;;;17.42;28.12
52441;BME280;39611;46.062;8.950;2023-04-26T12:34:27;96121.75;;;17.48;28.34
52441;BME280;39611;46.062;8.950;2023-04-26T12:36:53;96114.72;;;17.43;29.08
52441;BME280;39611;46.062;8.950;2023-04-26T12:39:20;96106.50;;;17.49;25.55
52441;BME280;39611;46.062;8.950;2023-04-26T12:41:46;96099.97;;;17.58;25.21
52441;BME280;39611;46.062;8.950;2023-04-26T12:44:12;96106.88;;;17.59;28.33
52441;BME280;39611;46.062;8.950;2023-04-26T12:46:39;96105.88;;;17.64;27.25
52441;BME280;39611;46.062;8.950;2023-04-26T12:49:06;96109.38;;;17.64;27.96
52441;BME280;39611;46.062;8.950;2023-04-26T12:51:33;96106.13;;;17.59;27.02
52441;BME280;39611;46.062;8.950;2023-04-26T12:53:59;96107.19;;;17.58;28.25
52441;BME280;39611;46.062;8.950;2023-04-26T12:56:26;96099.56;;;17.68;25.85
52441;BME280;39611;46.062;8.950;2023-04-26T12:58:52;96096.69;;;17.74;25.73
52441;BME280;39611;46.062;8.950;2023-04-26T13:01:19;96098.28;;;17.75;27.85
52441;BME280;39611;46.062;8.950;2023-04-26T13:03:45;96093.31;;;17.85;25.79
52441;BME280;39611;46.062;8.950;2023-04-26T13:06:12;96087.06;;;17.81;27.08
52441;BME280;39611;46.062;8.950;2023-04-26T13:08:39;96090.84;;;17.80;27.96
52441;BME280;39611;46.062;8.950;2023-04-26T13:11:06;96075.63;;;17.72;25.67
52441;BME280;39611;46.062;8.950;2023-04-26T13:13:32;96080.97;;;17.72;26.45
52441;BME280;39611;46.062;8.950;2023-04-26T13:16:09;96080.25;;;17.84;26.28
52441;BME280;39611;46.062;8.950;2023-04-26T13:18:37;96088.09;;;17.89;25.58
52441;BME280;39611;46.062;8.950;2023-04-26T13:21:03;96084.94;;;17.87;25.81
52441;BME280;39611;46.062;8.950;2023-04-26T13:23:30;96082.81;;;17.80;26.31
52441;BME280;39611;46.062;8.950;2023-04-26T13:25:56;96086.00;;;17.74;27.60
52441;BME280;39611;46.062;8.950;2023-04-26T13:28:23;96080.38;;;17.66;27.94